createdAt,value
2022-08-26T00:00:31.971Z,99564.80
2022-08-26T00:03:41.056Z,99567.60
2022-08-26T00:06:51.097Z,99568.00
2022-08-26T00:09:58.026Z,99564.40
2022-08-26T00:13:08.194Z,99563.00
2022-08-26T00:16:16.051Z,99562.80
2022-08-26T00:19:26.069Z,99560.00
2022-08-26T00:22:36.101Z,99557.20
2022-08-26T00:25:44.080Z,99555.00
2022-08-26T00:28:51.099Z,99553.60
2022-08-26T00:31:58.161Z,99555.20
2022-08-26T00:35:08.085Z,99553.20
2022-08-26T00:38:21.141Z,99551.20
2022-08-26T00:41:30.116Z,99549.20
2022-08-26T00:44:37.120Z,99548.60
2022-08-26T00:47:44.145Z,99548.40
2022-08-26T00:50:54.137Z,99549.40
2022-08-26T00:54:04.133Z,99545.40
2022-08-26T00:57:16.349Z,99544.20
2022-08-26T01:00:24.182Z,99540.40
2022-08-26T01:03:32.405Z,99542.60
2022-08-26T01:06:40.207Z,99540.00
2022-08-26T01:09:52.223Z,99538.80
2022-08-26T01:13:05.166Z,99539.20
2022-08-26T01:16:15.284Z,99540.40
2022-08-26T01:19:23.206Z,99538.80
2022-08-26T01:22:30.254Z,99534.80
2022-08-26T01:25:38.218Z,99531.40
2022-08-26T01:28:46.263Z,99525.80
2022-08-26T01:31:58.383Z,99527.20
2022-08-26T01:35:06.270Z,99532.20
2022-08-26T01:38:13.295Z,99532.20
2022-08-26T01:41:27.210Z,99533.80
2022-08-26T01:44:40.249Z,99528.00
2022-08-26T01:47:48.247Z,99525.60
2022-08-26T01:50:58.266Z,99520.40
2022-08-26T01:54:08.318Z,99520.40
2022-08-26T01:57:19.288Z,99524.00
2022-08-26T02:00:26.369Z,99518.40
2022-08-26T02:03:38.690Z,99519.60
2022-08-26T02:06:51.844Z,99518.20
2022-08-26T02:09:59.354Z,99520.20
2022-08-26T02:13:09.470Z,99520.40
2022-08-26T02:16:17.390Z,99519.60
2022-08-26T02:19:27.423Z,99517.60
2022-08-26T02:22:35.420Z,99518.60
2022-08-26T02:25:50.332Z,99519.00
2022-08-26T02:28:58.442Z,99522.00
2022-08-26T02:32:08.427Z,99522.00
2022-08-26T02:35:18.187Z,99525.20
2022-08-26T02:38:27.412Z,99522.20
2022-08-26T02:41:40.297Z,99524.00
2022-08-26T02:44:52.465Z,99520.80
2022-08-26T02:48:02.453Z,99523.60
2022-08-26T02:51:17.474Z,99524.00
2022-08-26T02:54:25.441Z,99522.80
2022-08-26T02:57:35.485Z,99525.80
2022-08-26T03:00:52.763Z,99526.40
2022-08-26T03:04:13.880Z,99528.80
2022-08-26T03:07:21.527Z,99532.80
2022-08-26T03:10:31.489Z,99533.60
2022-08-26T03:13:40.591Z,99531.20
2022-08-26T03:16:50.600Z,99532.20
2022-08-26T03:20:01.625Z,99530.60
2022-08-26T03:23:09.647Z,99541.80
2022-08-26T03:26:38.527Z,99544.40
2022-08-26T03:29:50.553Z,99542.00
2022-08-26T03:33:01.645Z,99541.40
2022-08-26T03:36:09.644Z,99541.80
2022-08-26T03:39:19.607Z,99543.60
2022-08-26T03:42:30.537Z,99539.20
2022-08-26T03:45:38.591Z,99538.60
2022-08-26T03:48:51.590Z,99540.20
2022-08-26T03:51:58.649Z,99539.60
2022-08-26T03:55:06.605Z,99539.20
2022-08-26T03:58:13.804Z,99545.40
2022-08-26T04:01:21.708Z,99540.40
2022-08-26T04:04:29.701Z,99548.40
2022-08-26T04:07:37.765Z,99544.60
2022-08-26T04:10:44.698Z,99539.80
2022-08-26T04:13:52.664Z,99540.60
2022-08-26T04:17:00.687Z,99542.20
2022-08-26T04:20:07.906Z,99541.00
2022-08-26T04:23:16.656Z,99537.60
2022-08-26T04:26:24.741Z,99539.60
2022-08-26T04:29:34.724Z,99540.60
2022-08-26T04:32:42.748Z,99544.20
2022-08-26T04:35:50.676Z,99547.60
2022-08-26T04:38:57.783Z,99546.60
2022-08-26T04:42:04.764Z,99550.00
2022-08-26T04:45:18.764Z,99546.40
2022-08-26T04:48:30.888Z,99547.40
2022-08-26T04:51:39.792Z,99548.20
2022-08-26T04:54:52.702Z,99544.40
2022-08-26T04:58:03.448Z,99543.40
2022-08-26T05:01:10.841Z,99542.40
2022-08-26T05:04:22.189Z,99541.40
2022-08-26T05:07:33.855Z,99542.60
2022-08-26T05:10:43.839Z,99544.40
2022-08-26T05:13:53.768Z,99544.20
2022-08-26T05:17:00.876Z,99537.80
2022-08-26T05:20:12.003Z,99539.40
2022-08-26T05:23:18.886Z,99537.80
2022-08-26T05:26:31.863Z,99536.00
2022-08-26T05:29:41.901Z,99533.00
2022-08-26T05:32:55.261Z,99542.80
2022-08-26T05:36:05.895Z,99542.20
2022-08-26T05:39:16.845Z,99540.80
2022-08-26T05:42:23.892Z,99536.40
2022-08-26T05:45:31.964Z,99536.40
2022-08-26T05:48:44.230Z,99537.00
2022-08-26T05:51:54.032Z,99537.00
2022-08-26T05:55:01.901Z,99534.40
2022-08-26T05:58:11.961Z,99530.00
2022-08-26T06:01:15.998Z,99528.20
2022-08-26T06:04:26.698Z,99528.20
2022-08-26T06:07:35.024Z,99525.80
2022-08-26T06:10:46.059Z,99526.40
2022-08-26T06:14:03.552Z,99527.20
2022-08-26T06:17:12.048Z,99526.00
2022-08-26T06:20:22.989Z,99522.80
2022-08-26T06:23:34.065Z,99528.60
2022-08-26T06:26:42.670Z,99528.00
2022-08-26T06:29:50.146Z,99524.40
2022-08-26T06:32:58.067Z,99525.80
2022-08-26T06:36:09.012Z,99530.00
2022-08-26T06:39:19.086Z,99530.40
2022-08-26T06:42:28.048Z,99532.20
2022-08-26T06:45:38.033Z,99532.00
2022-08-26T06:48:45.063Z,99531.40
2022-08-26T06:51:55.027Z,99533.80
2022-08-26T06:55:03.101Z,99535.40
2022-08-26T06:58:13.126Z,99535.00
2022-08-26T07:01:23.344Z,99534.80
2022-08-26T07:04:31.140Z,99531.40
2022-08-26T07:07:39.146Z,99529.00
2022-08-26T07:10:46.100Z,99531.40
2022-08-26T07:13:58.133Z,99533.40
2022-08-26T07:17:13.380Z,99531.00
2022-08-26T07:20:21.180Z,99531.80
2022-08-26T07:23:31.184Z,99532.40
2022-08-26T07:26:38.120Z,99525.00
2022-08-26T07:29:48.142Z,99523.80
2022-08-26T07:32:56.361Z,99524.60
2022-08-26T07:36:13.147Z,99524.80
2022-08-26T07:39:23.346Z,99530.40
2022-08-26T07:42:38.221Z,99525.80
2022-08-26T07:45:48.275Z,99517.60
2022-08-26T07:48:58.268Z,99520.60
2022-08-26T07:52:08.302Z,99515.20
2022-08-26T07:55:19.291Z,99513.20
2022-08-26T07:58:27.287Z,99514.20
2022-08-26T08:01:35.332Z,99511.40
2022-08-26T08:04:49.364Z,99513.00
2022-08-26T08:08:19.673Z,99512.00
2022-08-26T08:11:27.343Z,99500.60
2022-08-26T08:14:36.438Z,99495.80
2022-08-26T08:18:01.303Z,99495.00
2022-08-26T08:21:21.185Z,99491.20
2022-08-26T08:24:32.304Z,99489.80
2022-08-26T08:27:42.380Z,99483.40
2022-08-26T08:31:00.388Z,99481.80
2022-08-26T08:34:08.336Z,99479.60
2022-08-26T08:37:15.427Z,99483.20
2022-08-26T08:40:23.434Z,99476.80
2022-08-26T08:43:37.662Z,99471.80
2022-08-26T08:47:01.418Z,99467.80
2022-08-26T08:50:10.458Z,99468.40
2022-08-26T08:53:19.416Z,99472.00
2022-08-26T08:56:31.066Z,99468.20
2022-08-26T08:59:38.561Z,99468.20
2022-08-26T09:02:49.631Z,99471.60
2022-08-26T09:05:57.445Z,99470.60
2022-08-26T09:09:04.574Z,99467.00
2022-08-26T09:12:13.498Z,99468.40
2022-08-26T09:15:24.647Z,99463.20
2022-08-26T09:18:35.419Z,99459.80
2022-08-26T09:21:45.472Z,99460.80
2022-08-26T09:24:55.532Z,99465.00
2022-08-26T09:28:02.553Z,99463.00
2022-08-26T09:31:12.554Z,99458.60
2022-08-26T09:34:24.458Z,99452.60
2022-08-26T09:37:35.568Z,99453.20
2022-08-26T09:40:50.532Z,99456.60
2022-08-26T09:44:07.571Z,99458.60
2022-08-26T09:47:25.558Z,99455.80
2022-08-26T09:50:53.547Z,99458.00
2022-08-26T09:54:08.210Z,99457.20
2022-08-26T09:57:19.688Z,99456.80
2022-08-26T10:00:30.537Z,99457.40
2022-08-26T10:03:40.655Z,99456.00
2022-08-26T10:06:48.612Z,99463.00
2022-08-26T10:10:02.633Z,99456.80
2022-08-26T10:13:30.647Z,99456.40
2022-08-26T10:16:44.442Z,99445.20
2022-08-26T10:19:57.935Z,99440.20
2022-08-26T10:23:17.656Z,99443.40
2022-08-26T10:26:24.664Z,99439.20
2022-08-26T10:29:34.855Z,99441.40
2022-08-26T10:32:42.702Z,99433.80
2022-08-26T10:35:49.770Z,99435.20
2022-08-26T10:38:57.805Z,99435.00
2022-08-26T10:42:24.654Z,99436.20
2022-08-26T10:45:34.723Z,99432.20
2022-08-26T10:48:43.571Z,99425.80
2022-08-26T10:51:54.766Z,99427.80
2022-08-26T10:55:04.722Z,99425.60
2022-08-26T10:58:11.828Z,99427.40
2022-08-26T11:01:24.596Z,99422.20
2022-08-26T11:04:37.195Z,99421.00
2022-08-26T11:07:50.277Z,99416.20
2022-08-26T11:11:00.902Z,99411.60
2022-08-26T11:14:11.742Z,99408.80
2022-08-26T11:17:25.751Z,99398.40
2022-08-26T11:20:49.818Z,99401.20
2022-08-26T11:24:04.914Z,99397.80
2022-08-26T11:27:20.082Z,99399.20
2022-08-26T11:30:28.055Z,99398.20
2022-08-26T11:33:36.629Z,99392.00
2022-08-26T11:36:44.177Z,99392.40
2022-08-26T11:39:55.023Z,99393.00
2022-08-26T11:43:05.902Z,99394.40
2022-08-26T11:46:22.868Z,99396.00
2022-08-26T11:49:35.603Z,99391.60
2022-08-26T11:52:51.546Z,99387.00
2022-08-26T11:56:06.953Z,99389.00
2022-08-26T11:59:17.898Z,99389.00
2022-08-26T12:02:29.085Z,99394.40
2022-08-26T12:05:38.215Z,99393.40
2022-08-26T12:08:46.948Z,99381.00
2022-08-26T12:11:58.036Z,99372.40
2022-08-26T12:15:09.179Z,99378.80
2022-08-26T12:18:20.670Z,99374.80
2022-08-26T12:21:41.030Z,99376.40
2022-08-26T12:24:51.979Z,99380.20
2022-08-26T12:28:03.047Z,99379.20
2022-08-26T12:31:25.064Z,99369.60
2022-08-26T12:34:37.098Z,99370.80
2022-08-26T12:37:48.160Z,99371.60
2022-08-26T12:40:59.138Z,99370.60
2022-08-26T12:44:17.132Z,99365.40
2022-08-26T12:47:42.270Z,99359.60
2022-08-26T12:50:48.114Z,99358.20
2022-08-26T12:54:08.046Z,99357.80
2022-08-26T12:57:18.185Z,99360.40
2022-08-26T13:00:28.671Z,99363.20
2022-08-26T13:03:37.166Z,99357.60
2022-08-26T13:06:50.229Z,99358.60
2022-08-26T13:10:02.192Z,99357.60
2022-08-26T13:13:17.337Z,99353.60
2022-08-26T13:16:25.657Z,99348.80
2022-08-26T13:19:36.321Z,99354.00
2022-08-26T13:22:47.355Z,99352.40
2022-08-26T13:26:08.423Z,99355.20
2022-08-26T13:29:19.189Z,99352.20
2022-08-26T13:32:29.255Z,99356.40
2022-08-26T13:35:40.331Z,99354.80
2022-08-26T13:38:52.058Z,99353.60
2022-08-26T13:42:24.104Z,99357.40
2022-08-26T13:45:54.279Z,99349.60
2022-08-26T13:49:08.337Z,99355.00
2022-08-26T13:52:25.538Z,99347.20
2022-08-26T13:55:38.221Z,99346.80
2022-08-26T13:58:47.110Z,99347.40
2022-08-26T14:01:54.347Z,99346.20
2022-08-26T14:05:08.507Z,99351.60
2022-08-26T14:08:18.336Z,99344.80
2022-08-26T14:11:37.276Z,99346.60
2022-08-26T14:14:58.267Z,99343.20
2022-08-26T14:18:13.515Z,99347.20
2022-08-26T14:21:26.362Z,99350.20
2022-08-26T14:24:42.385Z,99351.20
2022-08-26T14:27:50.361Z,99349.40
2022-08-26T14:30:58.370Z,99355.20
2022-08-26T14:34:06.384Z,99357.40
2022-08-26T14:37:27.490Z,99357.80
2022-08-26T14:40:31.579Z,99361.00
2022-08-26T14:43:41.360Z,99365.60
2022-08-26T14:46:48.539Z,99352.40
2022-08-26T14:50:02.387Z,99344.20
2022-08-26T14:53:14.525Z,99365.80
2022-08-26T14:56:29.484Z,99364.40
2022-08-26T14:59:49.689Z,99367.60
2022-08-26T15:02:57.526Z,99370.60
2022-08-26T15:06:05.417Z,99373.40
2022-08-26T15:09:30.403Z,99375.20
2022-08-26T15:12:40.494Z,99375.60
2022-08-26T15:15:50.434Z,99373.20
2022-08-26T15:19:04.527Z,99379.80
2022-08-26T15:22:12.494Z,99377.20
2022-08-26T15:25:22.534Z,99383.60
2022-08-26T15:28:30.472Z,99382.20
2022-08-26T15:31:47.685Z,99381.20
2022-08-26T15:34:59.360Z,99382.80
2022-08-26T15:38:10.942Z,99388.20
2022-08-26T15:41:21.536Z,99387.60
2022-08-26T15:44:35.304Z,99390.80
2022-08-26T15:47:55.244Z,99393.40
2022-08-26T15:51:15.565Z,99394.00
2022-08-26T15:54:23.632Z,99387.40
2022-08-26T15:57:30.557Z,99383.20
2022-08-26T16:00:44.982Z,99387.60
2022-08-26T16:03:52.489Z,99388.20
2022-08-26T16:06:57.414Z,99385.20
2022-08-26T16:10:14.629Z,99389.20
2022-08-26T16:13:22.651Z,99389.00
2022-08-26T16:16:32.684Z,99393.20
2022-08-26T16:19:41.586Z,99392.40
2022-08-26T16:22:51.731Z,99394.60
2022-08-26T16:25:59.673Z,99400.20
2022-08-26T16:29:01.614Z,99404.00
2022-08-26T16:32:11.783Z,99405.40
2022-08-26T16:35:22.645Z,99407.00
2022-08-26T16:38:35.643Z,99406.40
2022-08-26T16:41:49.000Z,99410.80
2022-08-26T16:45:00.675Z,99409.80
2022-08-26T16:48:10.864Z,99411.40
2022-08-26T16:51:19.751Z,99410.20
2022-08-26T16:54:30.682Z,99411.60
2022-08-26T16:57:42.780Z,99413.40
2022-08-26T17:00:56.712Z,99413.60
2022-08-26T17:04:06.867Z,99416.20
2022-08-26T17:07:14.689Z,99421.20
2022-08-26T17:10:25.878Z,99423.40
2022-08-26T17:13:35.348Z,99428.60
2022-08-26T17:16:43.765Z,99430.80
2022-08-26T17:19:56.875Z,99435.60
2022-08-26T17:23:04.936Z,99440.00
2022-08-26T17:26:15.766Z,99442.00
2022-08-26T17:29:25.801Z,99448.00
2022-08-26T17:32:36.745Z,99448.00
2022-08-26T17:35:43.770Z,99448.80
2022-08-26T17:38:52.542Z,99453.00
2022-08-26T17:42:01.847Z,99455.40
2022-08-26T17:45:12.827Z,99454.80
2022-08-26T17:48:23.749Z,99457.40
2022-08-26T17:51:33.948Z,99457.20
2022-08-26T17:54:45.582Z,99456.60
2022-08-26T17:57:53.417Z,99459.40
2022-08-26T18:01:05.846Z,99458.20
2022-08-26T18:04:17.107Z,99466.80
2022-08-26T18:07:25.998Z,99482.80
2022-08-26T18:10:37.084Z,99483.40
2022-08-26T18:13:45.852Z,99488.20
2022-08-26T18:17:01.984Z,99485.80
2022-08-26T18:20:09.912Z,99492.40
2022-08-26T18:23:27.024Z,99490.80
2022-08-26T18:26:38.905Z,99493.60
2022-08-26T18:29:46.170Z,99497.60
2022-08-26T18:32:58.059Z,99500.60
2022-08-26T18:36:07.973Z,99500.00
2022-08-26T18:39:33.898Z,99499.60
2022-08-26T18:42:44.910Z,99498.20
2022-08-26T18:45:57.105Z,99501.20
2022-08-26T18:49:14.006Z,99497.40
2022-08-26T18:52:24.085Z,99495.40
2022-08-26T18:55:33.052Z,99496.80
2022-08-26T18:58:45.942Z,99497.40
2022-08-26T19:02:00.062Z,99501.80
2022-08-26T19:05:08.696Z,99497.40
2022-08-26T19:08:16.152Z,99501.20
2022-08-26T19:11:31.402Z,99506.20
2022-08-26T19:14:47.977Z,99505.60
2022-08-26T19:18:01.150Z,99512.80
2022-08-26T19:21:12.154Z,99513.60
2022-08-26T19:24:28.299Z,99516.00
2022-08-26T19:27:36.182Z,99515.20
2022-08-26T19:30:48.259Z,99513.40
2022-08-26T19:34:01.750Z,99512.40
2022-08-26T19:37:19.669Z,99514.80
2022-08-26T19:40:32.154Z,99512.40
2022-08-26T19:43:46.238Z,99514.80
2022-08-26T19:46:59.589Z,99513.00
2022-08-26T19:50:23.091Z,99519.00
2022-08-26T19:53:39.763Z,99522.20
2022-08-26T19:56:49.643Z,99521.00
2022-08-26T20:00:11.185Z,99522.40
2022-08-26T20:03:26.160Z,99518.60
2022-08-26T20:06:40.557Z,99526.20
2022-08-26T20:09:59.199Z,99525.40
2022-08-26T20:13:07.187Z,99530.40
2022-08-26T20:16:39.746Z,99531.20
2022-08-26T20:20:28.459Z,99530.60
2022-08-26T20:23:48.260Z,99530.40
2022-08-26T20:27:03.286Z,99531.40
2022-08-26T20:30:13.247Z,99536.00
2022-08-26T20:33:24.277Z,99539.60
2022-08-26T20:36:41.331Z,99540.40
2022-08-26T20:40:05.315Z,99541.60
2022-08-26T20:43:15.273Z,99543.40
2022-08-26T20:46:28.399Z,99544.40
2022-08-26T20:49:43.679Z,99544.40
2022-08-26T20:52:58.391Z,99538.60
2022-08-26T20:56:11.772Z,99539.00
2022-08-26T20:59:22.371Z,99538.80
2022-08-26T21:02:37.727Z,99537.60
2022-08-26T21:05:53.395Z,99535.80
2022-08-26T21:09:13.436Z,99543.20
2022-08-26T21:12:26.769Z,99542.80
2022-08-26T21:15:38.441Z,99542.20
2022-08-26T21:18:53.378Z,99544.40
2022-08-26T21:22:09.423Z,99547.20
2022-08-26T21:25:29.620Z,99545.20
2022-08-26T21:28:46.767Z,99541.20
2022-08-26T21:31:54.527Z,99539.40
2022-08-26T21:35:08.442Z,99545.00
2022-08-26T21:38:16.516Z,99541.40
2022-08-26T21:41:30.445Z,99540.80
2022-08-26T21:44:46.517Z,99545.80
2022-08-26T21:48:04.495Z,99550.40
2022-08-26T21:51:17.652Z,99547.20
2022-08-26T21:54:36.749Z,99553.40
2022-08-26T21:57:51.476Z,99553.20
2022-08-26T22:01:04.501Z,99553.80
2022-08-26T22:04:12.506Z,99546.80
2022-08-26T22:07:26.859Z,99546.60
2022-08-26T22:10:38.845Z,99544.20
2022-08-26T22:13:50.505Z,99542.60
2022-08-26T22:17:12.550Z,99535.80
2022-08-26T22:20:36.562Z,99538.20
2022-08-26T22:23:51.002Z,99538.00
2022-08-26T22:27:05.585Z,99532.00
2022-08-26T22:30:13.546Z,99529.80
2022-08-26T22:33:24.854Z,99527.40
2022-08-26T22:36:43.133Z,99524.00
2022-08-26T22:40:09.641Z,99521.40
2022-08-26T22:43:19.670Z,99511.40
2022-08-26T22:46:33.680Z,99508.40
2022-08-26T22:49:51.812Z,99508.20
2022-08-26T22:53:04.702Z,99507.80
2022-08-26T22:56:17.734Z,99509.60
2022-08-26T22:59:27.838Z,99509.40
2022-08-26T23:02:36.512Z,99506.60
2022-08-26T23:05:47.713Z,99513.40
2022-08-26T23:09:00.798Z,99513.00
2022-08-26T23:12:16.668Z,99510.40
2022-08-26T23:15:31.156Z,99512.80
2022-08-26T23:18:44.770Z,99515.00
2022-08-26T23:21:58.693Z,99513.60
2022-08-26T23:25:12.737Z,99511.20
2022-08-26T23:28:25.454Z,99508.00
2022-08-26T23:31:34.783Z,99506.60
2022-08-26T23:38:23.740Z,99508.20
2022-08-26T23:41:33.719Z,99504.80
2022-08-26T23:44:46.829Z,99504.00
2022-08-26T23:47:56.849Z,99502.00
2022-08-26T23:51:04.770Z,99502.80
2022-08-26T23:54:14.809Z,99502.20
2022-08-26T23:57:30.975Z,99499.20
